Huvudsida
METAR-TAF:

METAR-TAF

Flygplatser :

Vidsels flygplats

Vidsel, Sverige

latitud: 65-52N, longitud: 020-08E, höjd: 180 m

Aktuellt väderrapport

Denna rapport gjordes för 17 minuter sedan, klockan 05:50 UTC
Vind 2 kt varierande vindriktning
Temperatur 0°C
Fuktighet 100%
Tryck 1019 hPa
Sikt 10 km eller mer

METAR: ESPE 160550Z AUTO VRB02KT 9999 NCD 00/00 Q1019

Tid: 07:07 (06:07 UTC)

Väderprognos

Denna rapport gjordes för 19 timmar och 2 minuter sedan, klockan 11:05 UTC
Prognos gäller från 15 kl. 12 UTC till 15 kl. 15 UTC
Vind 5 kt från sydväst
Sikt 10 km eller mer
Inga moln under 1 500 m eller inga cumulonimbus

TAF: ESPE 151105Z 1512/1515 22005KT CAVOK RMK MIL

Aktuella väderrapporter och prognoser från 4000 flygplatser (METAR- och TAF-rapporter).

De tillgängliga stationerna syns som gula och röda prickar på kartan.

För musen över prickarna för att se namnen på stationerna.

Klicka sedan för att få väderrapporter och prognoser.

För att ändra kartan: Klicka på de gröna knapparna med ett svart kors på för att zooma in; den gröna knappen med ett streck på för att zooma ut; eller på de gröna pilarna för angränsande kartor.


METAR-TAF: